Aeroporto :
LOGIN :

Iscrizione | Disclaimer

   EN    FR    IT 

 










Sommario :    VFR   VFR Marginale   IFR   IFR Intensivo   IFR Molto Intensivo
Visibilità : 
Base nubi : 
>= 8 km
>= 3000ft
5 / 8 km
1000 / 3000 ft
1500m / 5 km
500 / 1000 ft
800 / 1500m
200 / 500 ft
< 800m
< 200 ft
Simboli :   Temporali  Nebbia  Neve Forte  Precipitazioni Forti  Vento > 20 kt
SIGMETs :   Varie  Temporali  Ghiacco  Turbolenza  Onda orograficha  Ceneri Vulcaniche






- Altitudine del aeroporto : 2356 ft


LZTT - Poprad Tatry

ULTIMO METAR :
  • 300630Z 27003KT 180V330 9999 -RA FEW008 BKN023 BKN046 10/09 Q1009 NOSIG

METARs OBSOLETI :
  • 300600Z VRB04KT 9999 -RA FEW008 BKN030 BKN046 10/09 Q1009 NOSIG
  • 300530Z 26008KT 9999 -RA FEW010 BKN030 BKN053 10/09 Q1009 NOSIG
  • 300500Z 25009KT 9999 -RA FEW010 BKN030 BKN060 10/09 Q1009 NOSIG
  • 300430Z 26009KT 9999 -RA FEW011 BKN030 OVC050 10/08 Q1009 NOSIG
  • 300400Z 26010KT 9999 -RA FEW011 SCT030 OVC050 10/08 Q1009

TAF TAF LZTT
Valido dal 30 a 06 ore il 01 a 06 ore UTC


300500Z 3006/0106 26008KT 9999 -RA FEW011 BKN030 OVC054
TEMPO 3006/3010 6000 -RA SCT009 OVC032
TEMPO 3010/3020 3000 RA BKN007 OVC020
PROB40
TEMPO 3012/3016 26015KT 5000 SHRA BKN020 FEW032TCU
BECMG 3021/3023 VRB02KT
BECMG 3023/0101 NSW SCT015 BKN070
PROB30
TEMPO 0102/0106 2000 BCFG SCT002



MetMap, La meteo Aeronautica in un colpo d'occhio ! - Copyright ORBIFLY Dicembre 2007 - Disclaimer

ORBIFLY MET'MAP TEAM :

Programmazione e sviluppo : Alexandra Zaïnal
Concezione : Baudouin d'Aumeries
Aiuto per la programmazione : Marc-Olivier Méhu
Supporto tecnico e logistico : Manuel Goepfert
Aiuto per la traduzione : Arnaldo La Scala

Contatto : metmap@orbifly.com




FONTI E CREDITI :

   NOAA